Auburn, Georgia
Current Conditions -  °F | °C
As of 8:45 PM on Saturday 20 Dec 2014 (Local Time) from KLZU Reporting Station
Haze Haze  
Wind Chill: 42°   Ceiling: 800
Heat Index: 45°   Visibility: 4mi
Dew Point: 37°   Wind: 5mph
Humidity: 76%   Direction: 80°E
Pressure: 30.2"   Gusts: NA
Location:  34.01°N, 83.83°W
Report Text: KLZU 210145Z 08004KT 4SM BR OVC008 07/03 A3020 RMK LL
Loading
Personal Weather Stations






























Interactive Weather Map New forecast layout! Learn more

10-Day Weather Forecast

Advertisements
Track Severe Weather on mobile